Falmouth, United Kingdom
Current Conditions -  °F | °C
As of 10:50 AM on Tuesday 21 Oct 2014 (Local Time) from EGDR Reporting Station
Haze Haze  
Wind Chill: 55°   Ceiling: Unl
Heat Index: 55°   Visibility: 6mi
Dew Point: 43°   Wind: 22mph
Humidity: 63%   Direction: 300°WNW
Pressure: 29.97"   Gusts: 39mph
Location:  50.15°N, 5.07°W
Report Text: EGDR 210950Z 30019G34KT 9999 HZ FEW014 SCT024 13/06 Q1015 RESHRA WHT NOSIG
Loading
Personal Weather Stations






























Interactive Weather Map
Tropical Storm Tracking
New forecast layout! Learn more

10-Day Weather Forecast

Advertisements
Track Severe Weather on mobile